sensor_id;sensor_type;location;lat;lon;timestamp;pressure;altitude;pressure_sealevel;temperature;humidity
50011;BME280;35899;50.352;19.390;2023-08-17T00:02:20;98107.52;;;23.08;79.00
50011;BME280;35899;50.352;19.390;2023-08-17T00:04:53;98122.77;;;23.03;79.15
50011;BME280;35899;50.352;19.390;2023-08-17T00:07:39;98125.73;;;22.98;79.40
50011;BME280;35899;50.352;19.390;2023-08-17T00:10:18;98126.02;;;22.96;79.26
50011;BME280;35899;50.352;19.390;2023-08-17T00:15:27;98126.25;;;22.90;79.45
50011;BME280;35899;50.352;19.390;2023-08-17T00:18:08;98122.00;;;22.88;79.64
50011;BME280;35899;50.352;19.390;2023-08-17T00:20:52;98127.48;;;22.87;79.89
50011;BME280;35899;50.352;19.390;2023-08-17T00:23:24;98131.38;;;22.84;79.84
50011;BME280;35899;50.352;19.390;2023-08-17T00:28:48;98122.69;;;22.66;79.93
50011;BME280;35899;50.352;19.390;2023-08-17T00:31:17;98121.50;;;22.62;80.32
50011;BME280;35899;50.352;19.390;2023-08-17T00:34:08;98118.48;;;22.61;80.68
50011;BME280;35899;50.352;19.390;2023-08-17T00:36:34;98115.14;;;22.59;80.82
50011;BME280;35899;50.352;19.390;2023-08-17T00:39:06;98112.56;;;22.59;80.91
50011;BME280;35899;50.352;19.390;2023-08-17T00:41:42;98112.06;;;22.60;81.17
50011;BME280;35899;50.352;19.390;2023-08-17T00:44:19;98108.16;;;22.63;81.28
50011;BME280;35899;50.352;19.390;2023-08-17T00:47:06;98106.58;;;22.67;81.40
50011;BME280;35899;50.352;19.390;2023-08-17T00:49:37;98108.35;;;22.68;81.38
50011;BME280;35899;50.352;19.390;2023-08-17T00:52:07;98115.55;;;22.68;81.21
50011;BME280;35899;50.352;19.390;2023-08-17T00:54:55;98121.95;;;22.68;81.13
50011;BME280;35899;50.352;19.390;2023-08-17T00:57:22;98125.34;;;22.64;81.09
50011;BME280;35899;50.352;19.390;2023-08-17T00:59:57;98131.08;;;22.59;80.83
50011;BME280;35899;50.352;19.390;2023-08-17T01:05:28;98130.77;;;22.57;81.29
50011;BME280;35899;50.352;19.390;2023-08-17T01:07:56;98131.52;;;22.53;81.02
50011;BME280;35899;50.352;19.390;2023-08-17T01:10:41;98135.21;;;22.48;81.16
50011;BME280;35899;50.352;19.390;2023-08-17T01:13:13;98134.58;;;22.46;81.50
50011;BME280;35899;50.352;19.390;2023-08-17T01:15:45;98135.18;;;22.45;81.78
50011;BME280;35899;50.352;19.390;2023-08-17T01:18:21;98132.52;;;22.45;82.09
50011;BME280;35899;50.352;19.390;2023-08-17T01:20:53;98133.07;;;22.48;82.21
50011;BME280;35899;50.352;19.390;2023-08-17T01:23:20;98133.81;;;22.49;82.22
50011;BME280;35899;50.352;19.390;2023-08-17T01:25:50;98133.91;;;22.50;82.20
50011;BME280;35899;50.352;19.390;2023-08-17T01:28:22;98129.91;;;22.49;82.06
50011;BME280;35899;50.352;19.390;2023-08-17T01:33:22;98126.98;;;22.49;82.06
50011;BME280;35899;50.352;19.390;2023-08-17T01:35:54;98125.33;;;22.48;82.14
50011;BME280;35899;50.352;19.390;2023-08-17T01:38:24;98119.47;;;22.41;82.07
50011;BME280;35899;50.352;19.390;2023-08-17T01:40:54;98118.74;;;22.36;82.44
50011;BME280;35899;50.352;19.390;2023-08-17T01:43:21;98123.23;;;22.34;82.80
50011;BME280;35899;50.352;19.390;2023-08-17T01:45:48;98121.01;;;22.27;82.67
50011;BME280;35899;50.352;19.390;2023-08-17T01:48:15;98121.84;;;22.18;82.65
50011;BME280;35899;50.352;19.390;2023-08-17T01:50:42;98123.69;;;22.12;82.93
50011;BME280;35899;50.352;19.390;2023-08-17T01:53:09;98126.31;;;22.09;83.28
50011;BME280;35899;50.352;19.390;2023-08-17T01:55:35;98131.38;;;22.11;83.72
50011;BME280;35899;50.352;19.390;2023-08-17T01:58:02;98132.98;;;22.12;83.85
50011;BME280;35899;50.352;19.390;2023-08-17T02:00:32;98135.16;;;22.13;83.99
50011;BME280;35899;50.352;19.390;2023-08-17T02:02:58;98130.30;;;22.12;83.87
50011;BME280;35899;50.352;19.390;2023-08-17T02:05:25;98125.85;;;22.12;84.04
50011;BME280;35899;50.352;19.390;2023-08-17T02:07:55;98123.66;;;22.13;84.09
50011;BME280;35899;50.352;19.390;2023-08-17T02:10:21;98120.01;;;22.13;83.78
50011;BME280;35899;50.352;19.390;2023-08-17T02:13:08;98113.58;;;22.13;83.52
50011;BME280;35899;50.352;19.390;2023-08-17T02:15:47;98113.43;;;22.16;83.44
50011;BME280;35899;50.352;19.390;2023-08-17T02:18:13;98110.42;;;22.21;83.42
50011;BME280;35899;50.352;19.390;2023-08-17T02:20:40;98105.11;;;22.23;83.38
50011;BME280;35899;50.352;19.390;2023-08-17T02:23:17;98103.13;;;22.24;83.50
50011;BME280;35899;50.352;19.390;2023-08-17T02:28:44;98113.93;;;22.24;83.61
50011;BME280;35899;50.352;19.390;2023-08-17T02:31:14;98114.52;;;22.22;83.87
50011;BME280;35899;50.352;19.390;2023-08-17T02:33:43;98116.99;;;22.16;83.73
50011;BME280;35899;50.352;19.390;2023-08-17T02:36:10;98116.23;;;22.04;83.39
50011;BME280;35899;50.352;19.390;2023-08-17T02:38:42;98119.63;;;21.90;83.42
50011;BME280;35899;50.352;19.390;2023-08-17T02:41:08;98122.64;;;21.74;83.55
50011;BME280;35899;50.352;19.390;2023-08-17T02:43:44;98130.32;;;21.62;84.13
50011;BME280;35899;50.352;19.390;2023-08-17T02:46:12;98127.91;;;21.59;84.68
50011;BME280;35899;50.352;19.390;2023-08-17T02:48:39;98126.77;;;21.55;84.82
50011;BME280;35899;50.352;19.390;2023-08-17T02:51:05;98122.02;;;21.53;85.32
50011;BME280;35899;50.352;19.390;2023-08-17T02:53:35;98123.10;;;21.53;85.57
50011;BME280;35899;50.352;19.390;2023-08-17T02:56:01;98121.39;;;21.53;85.87
50011;BME280;35899;50.352;19.390;2023-08-17T02:58:30;98124.20;;;21.53;86.05
50011;BME280;35899;50.352;19.390;2023-08-17T03:01:02;98124.34;;;21.52;86.25
50011;BME280;35899;50.352;19.390;2023-08-17T03:03:36;98126.36;;;21.49;86.05
50011;BME280;35899;50.352;19.390;2023-08-17T03:06:05;98133.66;;;21.35;85.40
50011;BME280;35899;50.352;19.390;2023-08-17T03:08:35;98142.56;;;21.24;85.52
50011;BME280;35899;50.352;19.390;2023-08-17T03:11:03;98138.58;;;21.18;85.73
50011;BME280;35899;50.352;19.390;2023-08-17T03:13:30;98137.63;;;21.12;85.73
50011;BME280;35899;50.352;19.390;2023-08-17T03:15:57;98131.60;;;21.07;85.93
50011;BME280;35899;50.352;19.390;2023-08-17T03:18:31;98131.66;;;21.05;86.38
50011;BME280;35899;50.352;19.390;2023-08-17T03:21:10;98132.65;;;21.07;87.05
50011;BME280;35899;50.352;19.390;2023-08-17T03:23:57;98135.62;;;21.09;87.42
50011;BME280;35899;50.352;19.390;2023-08-17T03:26:24;98135.64;;;21.13;87.79
50011;BME280;35899;50.352;19.390;2023-08-17T03:28:50;98136.04;;;21.16;87.85
50011;BME280;35899;50.352;19.390;2023-08-17T03:31:20;98140.28;;;21.17;87.90
50011;BME280;35899;50.352;19.390;2023-08-17T03:33:47;98147.31;;;21.15;87.72
50011;BME280;35899;50.352;19.390;2023-08-17T03:36:17;98151.02;;;21.05;87.19
50011;BME280;35899;50.352;19.390;2023-08-17T03:41:46;98152.09;;;20.91;87.71
50011;BME280;35899;50.352;19.390;2023-08-17T03:44:13;98158.13;;;20.90;88.19
50011;BME280;35899;50.352;19.390;2023-08-17T03:46:42;98157.03;;;20.93;88.54
50011;BME280;35899;50.352;19.390;2023-08-17T03:49:12;98152.58;;;20.96;88.76
50011;BME280;35899;50.352;19.390;2023-08-17T03:51:39;98149.70;;;21.03;89.04
50011;BME280;35899;50.352;19.390;2023-08-17T03:54:11;98150.65;;;21.12;89.27
50011;BME280;35899;50.352;19.390;2023-08-17T03:56:41;98150.17;;;21.19;89.29
50011;BME280;35899;50.352;19.390;2023-08-17T03:59:12;98148.19;;;21.22;88.87
50011;BME280;35899;50.352;19.390;2023-08-17T04:01:38;98148.01;;;21.17;88.45
50011;BME280;35899;50.352;19.390;2023-08-17T04:04:14;98148.11;;;21.13;88.57
50011;BME280;35899;50.352;19.390;2023-08-17T04:06:44;98143.70;;;21.12;88.67
50011;BME280;35899;50.352;19.390;2023-08-17T04:09:13;98144.45;;;21.13;88.90
50011;BME280;35899;50.352;19.390;2023-08-17T04:11:40;98139.89;;;21.16;89.14
50011;BME280;35899;50.352;19.390;2023-08-17T04:14:30;98143.93;;;21.20;89.26
50011;BME280;35899;50.352;19.390;2023-08-17T04:16:56;98150.46;;;21.25;89.48
50011;BME280;35899;50.352;19.390;2023-08-17T04:19:23;98152.95;;;21.29;89.63
50011;BME280;35899;50.352;19.390;2023-08-17T04:21:50;98156.45;;;21.34;89.72
50011;BME280;35899;50.352;19.390;2023-08-17T04:24:16;98162.36;;;21.40;89.89
50011;BME280;35899;50.352;19.390;2023-08-17T04:26:43;98164.27;;;21.43;89.64
50011;BME280;35899;50.352;19.390;2023-08-17T04:29:10;98168.13;;;21.43;89.35
50011;BME280;35899;50.352;19.390;2023-08-17T04:31:36;98177.52;;;21.43;89.15
50011;BME280;35899;50.352;19.390;2023-08-17T04:34:03;98187.06;;;21.42;89.11
50011;BME280;35899;50.352;19.390;2023-08-17T04:36:31;98191.01;;;21.43;89.26
50011;BME280;35899;50.352;19.390;2023-08-17T04:38:58;98189.75;;;21.45;89.26
50011;BME280;35899;50.352;19.390;2023-08-17T04:41:24;98183.04;;;21.49;89.28
50011;BME280;35899;50.352;19.390;2023-08-17T04:43:52;98177.52;;;21.53;89.41
50011;BME280;35899;50.352;19.390;2023-08-17T04:46:18;98177.95;;;21.54;89.31
50011;BME280;35899;50.352;19.390;2023-08-17T04:48:45;98182.42;;;21.56;89.38
50011;BME280;35899;50.352;19.390;2023-08-17T04:51:15;98180.26;;;21.61;89.70
50011;BME280;35899;50.352;19.390;2023-08-17T04:53:43;98182.98;;;21.68;90.01
50011;BME280;35899;50.352;19.390;2023-08-17T04:56:09;98183.69;;;21.75;90.13
50011;BME280;35899;50.352;19.390;2023-08-17T04:58:36;98186.55;;;21.79;89.81
50011;BME280;35899;50.352;19.390;2023-08-17T05:01:03;98187.20;;;21.84;89.71
50011;BME280;35899;50.352;19.390;2023-08-17T05:03:29;98188.62;;;21.92;89.95
50011;BME280;35899;50.352;19.390;2023-08-17T05:06:00;98193.79;;;21.99;89.80
50011;BME280;35899;50.352;19.390;2023-08-17T05:08:30;98194.41;;;22.03;89.93
50011;BME280;35899;50.352;19.390;2023-08-17T05:10:57;98199.77;;;22.10;89.99
50011;BME280;35899;50.352;19.390;2023-08-17T05:13:28;98204.30;;;22.17;89.94
50011;BME280;35899;50.352;19.390;2023-08-17T05:15:58;98206.58;;;22.25;89.92
50011;BME280;35899;50.352;19.390;2023-08-17T05:18:25;98209.34;;;22.33;89.68
50011;BME280;35899;50.352;19.390;2023-08-17T05:20:52;98204.42;;;22.40;89.34
50011;BME280;35899;50.352;19.390;2023-08-17T05:23:23;98201.94;;;22.47;88.83
50011;BME280;35899;50.352;19.390;2023-08-17T05:25:50;98200.19;;;22.51;88.27
50011;BME280;35899;50.352;19.390;2023-08-17T05:28:19;98198.38;;;22.55;87.97
50011;BME280;35899;50.352;19.390;2023-08-17T05:30:48;98202.93;;;22.55;87.35
50011;BME280;35899;50.352;19.390;2023-08-17T05:33:16;98206.73;;;22.57;87.49
50011;BME280;35899;50.352;19.390;2023-08-17T05:35:43;98207.79;;;22.63;87.82
50011;BME280;35899;50.352;19.390;2023-08-17T05:38:10;98208.38;;;22.69;87.72
50011;BME280;35899;50.352;19.390;2023-08-17T05:40:56;98211.27;;;22.75;87.65
50011;BME280;35899;50.352;19.390;2023-08-17T05:43:34;98214.11;;;22.73;87.22
50011;BME280;35899;50.352;19.390;2023-08-17T05:46:01;98213.31;;;22.75;87.37
50011;BME280;35899;50.352;19.390;2023-08-17T05:51:25;98214.14;;;22.85;87.53
50011;BME280;35899;50.352;19.390;2023-08-17T05:53:56;98209.65;;;22.87;87.19
50011;BME280;35899;50.352;19.390;2023-08-17T05:56:23;98210.54;;;22.87;86.75
50011;BME280;35899;50.352;19.390;2023-08-17T05:58:55;98214.21;;;22.96;87.21
50011;BME280;35899;50.352;19.390;2023-08-17T06:01:28;98215.40;;;23.03;87.08
50011;BME280;35899;50.352;19.390;2023-08-17T06:07:10;98215.21;;;23.11;86.86
50011;BME280;35899;50.352;19.390;2023-08-17T06:09:37;98215.38;;;23.14;86.98
50011;BME280;35899;50.352;19.390;2023-08-17T06:12:04;98218.39;;;23.23;86.84
50011;BME280;35899;50.352;19.390;2023-08-17T06:14:36;98216.34;;;23.27;86.89
50011;BME280;35899;50.352;19.390;2023-08-17T06:20:38;98212.04;;;23.59;87.15
50011;BME280;35899;50.352;19.390;2023-08-17T06:23:09;98211.55;;;23.72;87.02
50011;BME280;35899;50.352;19.390;2023-08-17T06:25:37;98208.96;;;23.78;86.80
50011;BME280;35899;50.352;19.390;2023-08-17T06:28:07;98210.27;;;23.84;86.77
50011;BME280;35899;50.352;19.390;2023-08-17T06:30:58;98207.66;;;23.91;86.77
50011;BME280;35899;50.352;19.390;2023-08-17T06:33:49;98206.57;;;23.98;86.72
50011;BME280;35899;50.352;19.390;2023-08-17T06:37:01;98206.44;;;24.05;86.55
50011;BME280;35899;50.352;19.390;2023-08-17T06:40:23;98209.56;;;24.16;86.13
50011;BME280;35899;50.352;19.390;2023-08-17T06:43:13;98215.30;;;24.30;85.50
50011;BME280;35899;50.352;19.390;2023-08-17T06:49:06;98214.23;;;24.60;83.94
50011;BME280;35899;50.352;19.390;2023-08-17T06:55:12;98213.31;;;24.92;83.19
50011;BME280;35899;50.352;19.390;2023-08-17T06:58:00;98207.98;;;25.10;83.36
50011;BME280;35899;50.352;19.390;2023-08-17T07:01:08;98202.81;;;25.25;82.56
50011;BME280;35899;50.352;19.390;2023-08-17T07:04:17;98196.37;;;25.41;82.67
50011;BME280;35899;50.352;19.390;2023-08-17T07:13:32;98198.13;;;25.82;81.57
50011;BME280;35899;50.352;19.390;2023-08-17T07:16:39;98197.35;;;25.87;80.63
50011;BME280;35899;50.352;19.390;2023-08-17T07:19:46;98191.42;;;25.87;79.71
50011;BME280;35899;50.352;19.390;2023-08-17T07:29:26;98197.13;;;25.69;78.80
50011;BME280;35899;50.352;19.390;2023-08-17T07:32:10;98197.38;;;25.61;78.88
50011;BME280;35899;50.352;19.390;2023-08-17T07:35:18;98198.39;;;25.50;78.46
50011;BME280;35899;50.352;19.390;2023-08-17T07:41:26;98204.91;;;25.49;78.55
50011;BME280;35899;50.352;19.390;2023-08-17T07:44:33;98204.69;;;25.50;78.10
50011;BME280;35899;50.352;19.390;2023-08-17T07:47:28;98209.64;;;25.60;78.68
50011;BME280;35899;50.352;19.390;2023-08-17T07:50:31;98205.31;;;25.80;78.68
50011;BME280;35899;50.352;19.390;2023-08-17T07:53:23;98202.30;;;25.99;78.12
50011;BME280;35899;50.352;19.390;2023-08-17T07:56:24;98203.58;;;26.21;77.58
50011;BME280;35899;50.352;19.390;2023-08-17T08:05:30;98210.17;;;27.32;75.44
50011;BME280;35899;50.352;19.390;2023-08-17T08:24:12;98212.98;;;28.59;70.63
50011;BME280;35899;50.352;19.390;2023-08-17T08:33:46;98211.80;;;29.06;68.04
50011;BME280;35899;50.352;19.390;2023-08-17T08:36:37;98205.90;;;29.04;67.19
50011;BME280;35899;50.352;19.390;2023-08-17T08:42:55;98201.56;;;29.33;66.85
50011;BME280;35899;50.352;19.390;2023-08-17T08:46:02;98196.23;;;29.54;66.69
50011;BME280;35899;50.352;19.390;2023-08-17T08:49:10;98195.89;;;29.62;66.46
50011;BME280;35899;50.352;19.390;2023-08-17T09:01:37;98184.02;;;29.54;64.58
50011;BME280;35899;50.352;19.390;2023-08-17T09:04:44;98181.23;;;29.45;64.74
50011;BME280;35899;50.352;19.390;2023-08-17T09:07:51;98180.33;;;29.49;64.82
50011;BME280;35899;50.352;19.390;2023-08-17T09:17:12;98177.46;;;29.86;63.45
50011;BME280;35899;50.352;19.390;2023-08-17T09:29:44;98173.54;;;29.99;60.84
50011;BME280;35899;50.352;19.390;2023-08-17T09:45:21;98160.26;;;30.98;59.14
50011;BME280;35899;50.352;19.390;2023-08-17T09:48:28;98160.58;;;31.25;58.81
50011;BME280;35899;50.352;19.390;2023-08-17T09:52:04;98157.67;;;31.72;58.86
50011;BME280;35899;50.352;19.390;2023-08-17T10:26:19;98154.45;;;36.94;44.95
50011;BME280;35899;50.352;19.390;2023-08-17T10:39:02;98150.45;;;38.17;42.44
50011;BME280;35899;50.352;19.390;2023-08-17T10:54:44;98165.09;;;39.62;36.50
50011;BME280;35899;50.352;19.390;2023-08-17T11:04:32;98153.59;;;39.29;35.06
50011;BME280;35899;50.352;19.390;2023-08-17T11:29:25;98142.02;;;33.28;44.05
50011;BME280;35899;50.352;19.390;2023-08-17T11:32:33;98150.02;;;32.81;44.43
50011;BME280;35899;50.352;19.390;2023-08-17T11:35:40;98151.55;;;32.36;45.49
50011;BME280;35899;50.352;19.390;2023-08-17T11:38:47;98155.98;;;31.90;45.83
50011;BME280;35899;50.352;19.390;2023-08-17T11:41:54;98155.81;;;31.46;46.91
50011;BME280;35899;50.352;19.390;2023-08-17T11:51:00;98178.57;;;29.97;48.84
50011;BME280;35899;50.352;19.390;2023-08-17T11:54:08;98182.31;;;29.54;49.51
50011;BME280;35899;50.352;19.390;2023-08-17T11:57:15;98184.95;;;29.21;50.20
50011;BME280;35899;50.352;19.390;2023-08-17T12:03:29;98197.52;;;28.70;51.24
50011;BME280;35899;50.352;19.390;2023-08-17T12:09:29;98209.55;;;28.17;51.33
50011;BME280;35899;50.352;19.390;2023-08-17T12:12:22;98214.84;;;27.81;51.89
50011;BME280;35899;50.352;19.390;2023-08-17T12:18:55;98210.72;;;27.52;52.72
50011;BME280;35899;50.352;19.390;2023-08-17T12:27:15;98205.89;;;27.16;53.68
50011;BME280;35899;50.352;19.390;2023-08-17T12:30:13;98213.40;;;27.13;54.02
50011;BME280;35899;50.352;19.390;2023-08-17T12:33:32;98213.52;;;27.09;53.85
50011;BME280;35899;50.352;19.390;2023-08-17T12:45:43;98208.52;;;27.62;53.81
50011;BME280;35899;50.352;19.390;2023-08-17T12:57:52;98229.57;;;28.42;52.78
50011;BME280;35899;50.352;19.390;2023-08-17T13:01:10;98238.31;;;28.66;51.65
50011;BME280;35899;50.352;19.390;2023-08-17T13:04:18;98242.58;;;28.79;50.83
50011;BME280;35899;50.352;19.390;2023-08-17T13:07:17;98247.95;;;28.99;50.82
50011;BME280;35899;50.352;19.390;2023-08-17T13:10:24;98241.80;;;30.19;49.66
50011;BME280;35899;50.352;19.390;2023-08-17T13:25:52;98246.95;;;39.72;35.24
50011;BME280;35899;50.352;19.390;2023-08-17T13:28:59;98241.41;;;39.94;32.98
50011;BME280;35899;50.352;19.390;2023-08-17T13:32:06;98235.05;;;38.49;32.38
50011;BME280;35899;50.352;19.390;2023-08-17T13:35:12;98237.14;;;36.95;33.28
50011;BME280;35899;50.352;19.390;2023-08-17T13:41:26;98223.98;;;34.55;35.44
50011;BME280;35899;50.352;19.390;2023-08-17T13:50:56;98190.99;;;34.38;37.26
50011;BME280;35899;50.352;19.390;2023-08-17T14:03:18;98178.88;;;33.10;38.99
50011;BME280;35899;50.352;19.390;2023-08-17T14:06:26;98172.01;;;32.01;40.57
50011;BME280;35899;50.352;19.390;2023-08-17T14:09:25;98165.39;;;31.05;42.88
50011;BME280;35899;50.352;19.390;2023-08-17T14:15:38;98163.92;;;29.63;45.25
50011;BME280;35899;50.352;19.390;2023-08-17T14:18:45;98162.26;;;29.01;46.58
50011;BME280;35899;50.352;19.390;2023-08-17T14:21:52;98172.50;;;28.32;47.99
50011;BME280;35899;50.352;19.390;2023-08-17T14:31:14;98196.92;;;27.42;52.56
50011;BME280;35899;50.352;19.390;2023-08-17T14:34:03;98188.59;;;27.27;52.78
50011;BME280;35899;50.352;19.390;2023-08-17T14:43:14;98161.02;;;27.33;54.52
50011;BME280;35899;50.352;19.390;2023-08-17T14:46:20;98154.70;;;27.61;54.18
50011;BME280;35899;50.352;19.390;2023-08-17T14:49:28;98155.19;;;27.92;53.51
50011;BME280;35899;50.352;19.390;2023-08-17T14:52:35;98152.31;;;28.13;54.06
50011;BME280;35899;50.352;19.390;2023-08-17T14:55:42;98157.56;;;28.20;54.14
50011;BME280;35899;50.352;19.390;2023-08-17T14:58:49;98152.26;;;28.22;54.33
50011;BME280;35899;50.352;19.390;2023-08-17T15:01:56;98155.90;;;28.18;54.35
50011;BME280;35899;50.352;19.390;2023-08-17T15:05:03;98159.08;;;28.14;55.21
50011;BME280;35899;50.352;19.390;2023-08-17T15:17:23;98164.98;;;28.29;55.37
50011;BME280;35899;50.352;19.390;2023-08-17T15:26:44;98158.42;;;28.38;55.58
50011;BME280;35899;50.352;19.390;2023-08-17T15:32:58;98160.02;;;28.07;56.29
50011;BME280;35899;50.352;19.390;2023-08-17T15:36:06;98163.21;;;27.83;56.89
50011;BME280;35899;50.352;19.390;2023-08-17T15:42:11;98170.64;;;27.43;58.43
50011;BME280;35899;50.352;19.390;2023-08-17T15:45:19;98170.73;;;27.37;59.85
50011;BME280;35899;50.352;19.390;2023-08-17T15:48:13;98171.79;;;27.31;59.97
50011;BME280;35899;50.352;19.390;2023-08-17T15:57:43;98170.25;;;27.05;60.61
50011;BME280;35899;50.352;19.390;2023-08-17T16:00:51;98169.70;;;27.00;60.81
50011;BME280;35899;50.352;19.390;2023-08-17T16:13:17;98171.82;;;26.84;63.23
50011;BME280;35899;50.352;19.390;2023-08-17T16:16:24;98172.70;;;26.72;63.66
50011;BME280;35899;50.352;19.390;2023-08-17T16:19:12;98171.05;;;26.59;63.88
50011;BME280;35899;50.352;19.390;2023-08-17T16:22:20;98164.11;;;26.38;64.10
50011;BME280;35899;50.352;19.390;2023-08-17T16:28:27;98164.98;;;26.00;65.59
50011;BME280;35899;50.352;19.390;2023-08-17T16:31:34;98162.42;;;25.84;66.32
50011;BME280;35899;50.352;19.390;2023-08-17T16:37:48;98163.36;;;25.55;67.89
50011;BME280;35899;50.352;19.390;2023-08-17T16:47:03;98164.91;;;25.22;68.64
50011;BME280;35899;50.352;19.390;2023-08-17T16:50:11;98164.96;;;25.13;69.21
50011;BME280;35899;50.352;19.390;2023-08-17T16:55:51;98155.81;;;24.93;70.55
50011;BME280;35899;50.352;19.390;2023-08-17T17:01:38;98165.02;;;24.69;71.23
50011;BME280;35899;50.352;19.390;2023-08-17T17:05:02;98157.44;;;24.59;71.98
50011;BME280;35899;50.352;19.390;2023-08-17T17:07:41;98159.16;;;24.52;72.33
50011;BME280;35899;50.352;19.390;2023-08-17T17:10:17;98151.83;;;24.45;72.50
50011;BME280;35899;50.352;19.390;2023-08-17T17:12:59;98148.35;;;24.39;72.76
50011;BME280;35899;50.352;19.390;2023-08-17T17:15:35;98149.67;;;24.33;73.19
50011;BME280;35899;50.352;19.390;2023-08-17T17:20:43;98140.95;;;24.22;73.17
50011;BME280;35899;50.352;19.390;2023-08-17T17:29:08;98133.98;;;23.96;73.45
50011;BME280;35899;50.352;19.390;2023-08-17T17:31:37;98129.41;;;23.88;73.57
50011;BME280;35899;50.352;19.390;2023-08-17T17:37:00;98122.92;;;23.71;74.31
50011;BME280;35899;50.352;19.390;2023-08-17T17:39:29;98112.95;;;23.65;74.47
50011;BME280;35899;50.352;19.390;2023-08-17T17:42:13;98107.70;;;23.55;75.03
50011;BME280;35899;50.352;19.390;2023-08-17T17:44:40;98100.52;;;23.47;75.27
50011;BME280;35899;50.352;19.390;2023-08-17T17:47:10;98093.52;;;23.41;75.70
50011;BME280;35899;50.352;19.390;2023-08-17T17:49:36;98082.92;;;23.31;75.48
50011;BME280;35899;50.352;19.390;2023-08-17T17:52:08;98078.97;;;23.21;75.92
50011;BME280;35899;50.352;19.390;2023-08-17T17:54:35;98074.58;;;23.12;75.78
50011;BME280;35899;50.352;19.390;2023-08-17T17:57:02;98065.90;;;23.03;75.74
50011;BME280;35899;50.352;19.390;2023-08-17T17:59:29;98065.52;;;22.90;76.18
50011;BME280;35899;50.352;19.390;2023-08-17T18:01:56;98057.11;;;22.75;76.87
50011;BME280;35899;50.352;19.390;2023-08-17T18:04:23;98053.12;;;22.68;77.36
50011;BME280;35899;50.352;19.390;2023-08-17T18:06:49;98052.30;;;22.64;77.57
50011;BME280;35899;50.352;19.390;2023-08-17T18:09:16;98050.61;;;22.64;77.75
50011;BME280;35899;50.352;19.390;2023-08-17T18:11:43;98056.47;;;22.63;78.07
50011;BME280;35899;50.352;19.390;2023-08-17T18:14:10;98066.45;;;22.58;78.18
50011;BME280;35899;50.352;19.390;2023-08-17T18:16:36;98066.48;;;22.55;78.27
50011;BME280;35899;50.352;19.390;2023-08-17T18:19:03;98075.84;;;22.52;78.48
50011;BME280;35899;50.352;19.390;2023-08-17T18:21:33;98077.44;;;22.44;78.50
50011;BME280;35899;50.352;19.390;2023-08-17T18:23:59;98073.73;;;22.40;79.06
50011;BME280;35899;50.352;19.390;2023-08-17T18:26:28;98072.09;;;22.36;79.45
50011;BME280;35899;50.352;19.390;2023-08-17T18:28:55;98063.14;;;22.31;79.83
50011;BME280;35899;50.352;19.390;2023-08-17T18:31:22;98061.99;;;22.30;80.39
50011;BME280;35899;50.352;19.390;2023-08-17T18:33:52;98062.65;;;22.26;80.55
50011;BME280;35899;50.352;19.390;2023-08-17T18:36:18;98062.52;;;22.23;81.00
50011;BME280;35899;50.352;19.390;2023-08-17T18:38:45;98068.34;;;22.22;81.27
50011;BME280;35899;50.352;19.390;2023-08-17T18:41:12;98081.17;;;22.16;81.09
50011;BME280;35899;50.352;19.390;2023-08-17T18:43:39;98062.42;;;22.03;80.76
50011;BME280;35899;50.352;19.390;2023-08-17T18:46:05;98066.05;;;21.90;80.63
50011;BME280;35899;50.352;19.390;2023-08-17T18:48:32;98082.91;;;21.82;80.89
50011;BME280;35899;50.352;19.390;2023-08-17T18:50:59;98085.21;;;21.76;81.04
50011;BME280;35899;50.352;19.390;2023-08-17T18:53:26;98088.66;;;21.74;81.37
50011;BME280;35899;50.352;19.390;2023-08-17T18:55:52;98093.89;;;21.70;81.31
50011;BME280;35899;50.352;19.390;2023-08-17T18:58:19;98085.16;;;21.67;81.47
50011;BME280;35899;50.352;19.390;2023-08-17T19:00:54;98083.33;;;21.70;81.56
50011;BME280;35899;50.352;19.390;2023-08-17T19:03:24;98082.66;;;21.73;81.49
50011;BME280;35899;50.352;19.390;2023-08-17T19:05:51;98079.48;;;21.74;81.22
50011;BME280;35899;50.352;19.390;2023-08-17T19:08:17;98076.22;;;21.70;81.05
50011;BME280;35899;50.352;19.390;2023-08-17T19:10:44;98079.77;;;21.64;81.48
50011;BME280;35899;50.352;19.390;2023-08-17T19:13:11;98086.75;;;21.60;81.76
50011;BME280;35899;50.352;19.390;2023-08-17T19:15:38;98083.08;;;21.57;81.78
50011;BME280;35899;50.352;19.390;2023-08-17T19:24:23;98080.55;;;21.54;82.14
50011;BME280;35899;50.352;19.390;2023-08-17T19:26:49;98087.09;;;21.60;82.47
50011;BME280;35899;50.352;19.390;2023-08-17T19:29:16;98084.48;;;21.64;82.81
50011;BME280;35899;50.352;19.390;2023-08-17T19:31:42;98081.95;;;21.70;83.27
50011;BME280;35899;50.352;19.390;2023-08-17T19:34:10;98083.27;;;21.73;83.36
50011;BME280;35899;50.352;19.390;2023-08-17T19:36:37;98079.23;;;21.76;83.42
50011;BME280;35899;50.352;19.390;2023-08-17T19:39:04;98078.54;;;21.79;83.05
50011;BME280;35899;50.352;19.390;2023-08-17T19:41:31;98078.63;;;21.82;83.01
50011;BME280;35899;50.352;19.390;2023-08-17T19:43:58;98076.63;;;21.83;82.92
50011;BME280;35899;50.352;19.390;2023-08-17T19:46:25;98080.48;;;21.87;82.94
50011;BME280;35899;50.352;19.390;2023-08-17T19:48:52;98075.81;;;21.90;83.02
50011;BME280;35899;50.352;19.390;2023-08-17T19:51:19;98070.02;;;21.91;83.19
50011;BME280;35899;50.352;19.390;2023-08-17T19:53:46;98065.81;;;21.92;83.42
50011;BME280;35899;50.352;19.390;2023-08-17T19:56:12;98064.59;;;21.92;83.51
50011;BME280;35899;50.352;19.390;2023-08-17T20:02:37;98052.09;;;21.76;83.78
50011;BME280;35899;50.352;19.390;2023-08-17T20:05:24;98061.91;;;21.74;84.33
50011;BME280;35899;50.352;19.390;2023-08-17T20:07:51;98076.36;;;21.71;83.93